sensor_id;sensor_type;location;lat;lon;timestamp;P1;durP1;ratioP1;P2;durP2;ratioP2
40058;SDS011;25763;49.972;8.568;2023-07-31T00:01:04;13.88;;;13.00;;
40058;SDS011;25763;49.972;8.568;2023-07-31T00:03:29;14.48;;;13.57;;
40058;SDS011;25763;49.972;8.568;2023-07-31T00:05:55;14.00;;;13.15;;
40058;SDS011;25763;49.972;8.568;2023-07-31T00:08:20;16.27;;;15.38;;
40058;SDS011;25763;49.972;8.568;2023-07-31T00:10:45;24.75;;;23.40;;
40058;SDS011;25763;49.972;8.568;2023-07-31T00:13:11;13.70;;;12.80;;
40058;SDS011;25763;49.972;8.568;2023-07-31T00:15:36;18.13;;;16.85;;
40058;SDS011;25763;49.972;8.568;2023-07-31T00:18:02;21.98;;;20.77;;
40058;SDS011;25763;49.972;8.568;2023-07-31T00:20:27;15.50;;;14.60;;
40058;SDS011;25763;49.972;8.568;2023-07-31T00:22:53;17.42;;;16.42;;
40058;SDS011;25763;49.972;8.568;2023-07-31T00:25:18;13.93;;;13.13;;
40058;SDS011;25763;49.972;8.568;2023-07-31T00:27:43;11.45;;;10.75;;
40058;SDS011;25763;49.972;8.568;2023-07-31T00:30:11;12.32;;;11.63;;
40058;SDS011;25763;49.972;8.568;2023-07-31T00:32:36;13.82;;;13.02;;
40058;SDS011;25763;49.972;8.568;2023-07-31T00:35:02;12.00;;;11.30;;
40058;SDS011;25763;49.972;8.568;2023-07-31T00:37:27;11.07;;;10.38;;
40058;SDS011;25763;49.972;8.568;2023-07-31T00:39:53;11.45;;;10.75;;
40058;SDS011;25763;49.972;8.568;2023-07-31T00:42:18;12.60;;;11.90;;
40058;SDS011;25763;49.972;8.568;2023-07-31T00:44:44;9.98;;;9.38;;
40058;SDS011;25763;49.972;8.568;2023-07-31T00:47:10;12.45;;;11.65;;
40058;SDS011;25763;49.972;8.568;2023-07-31T00:49:35;15.32;;;13.35;;
40058;SDS011;25763;49.972;8.568;2023-07-31T00:52:00;12.45;;;11.75;;
40058;SDS011;25763;49.972;8.568;2023-07-31T00:54:27;12.57;;;11.77;;
40058;SDS011;25763;49.972;8.568;2023-07-31T00:56:53;10.30;;;9.70;;
40058;SDS011;25763;49.972;8.568;2023-07-31T00:59:19;14.35;;;13.55;;
40058;SDS011;25763;49.972;8.568;2023-07-31T01:01:44;11.65;;;10.95;;
40058;SDS011;25763;49.972;8.568;2023-07-31T01:04:10;11.50;;;10.80;;
40058;SDS011;25763;49.972;8.568;2023-07-31T01:06:39;13.85;;;13.05;;
40058;SDS011;25763;49.972;8.568;2023-07-31T01:11:56;10.63;;;9.98;;
40058;SDS011;25763;49.972;8.568;2023-07-31T01:14:25;15.23;;;11.93;;
40058;SDS011;25763;49.972;8.568;2023-07-31T01:16:50;11.55;;;10.80;;
40058;SDS011;25763;49.972;8.568;2023-07-31T01:19:16;14.88;;;13.95;;
40058;SDS011;25763;49.972;8.568;2023-07-31T01:21:49;10.63;;;10.02;;
40058;SDS011;25763;49.972;8.568;2023-07-31T01:24:54;10.73;;;10.10;;
40058;SDS011;25763;49.972;8.568;2023-07-31T01:27:20;10.48;;;9.82;;
40058;SDS011;25763;49.972;8.568;2023-07-31T01:30:03;10.60;;;9.98;;
40058;SDS011;25763;49.972;8.568;2023-07-31T01:32:35;10.55;;;9.93;;
40058;SDS011;25763;49.972;8.568;2023-07-31T01:35:04;10.65;;;9.95;;
40058;SDS011;25763;49.972;8.568;2023-07-31T01:37:29;10.73;;;10.02;;
40058;SDS011;25763;49.972;8.568;2023-07-31T01:39:55;12.05;;;11.27;;
40058;SDS011;25763;49.972;8.568;2023-07-31T01:42:20;10.90;;;10.20;;
40058;SDS011;25763;49.972;8.568;2023-07-31T01:44:45;12.82;;;12.13;;
40058;SDS011;25763;49.972;8.568;2023-07-31T01:47:11;11.82;;;11.13;;
40058;SDS011;25763;49.972;8.568;2023-07-31T01:49:36;14.02;;;12.93;;
40058;SDS011;25763;49.972;8.568;2023-07-31T01:52:01;14.02;;;13.18;;
40058;SDS011;25763;49.972;8.568;2023-07-31T01:54:27;12.20;;;11.50;;
40058;SDS011;25763;49.972;8.568;2023-07-31T01:56:52;12.68;;;11.98;;
40058;SDS011;25763;49.972;8.568;2023-07-31T01:59:18;11.30;;;10.60;;
40058;SDS011;25763;49.972;8.568;2023-07-31T02:01:43;16.15;;;15.15;;
40058;SDS011;25763;49.972;8.568;2023-07-31T02:04:09;14.65;;;13.82;;
40058;SDS011;25763;49.972;8.568;2023-07-31T02:06:34;18.42;;;17.42;;
40058;SDS011;25763;49.972;8.568;2023-07-31T02:08:59;12.65;;;11.85;;
40058;SDS011;25763;49.972;8.568;2023-07-31T02:11:25;13.32;;;12.43;;
40058;SDS011;25763;49.972;8.568;2023-07-31T02:13:50;12.70;;;11.90;;
40058;SDS011;25763;49.972;8.568;2023-07-31T02:16:15;12.45;;;11.57;;
40058;SDS011;25763;49.972;8.568;2023-07-31T02:18:41;13.70;;;12.90;;
40058;SDS011;25763;49.972;8.568;2023-07-31T02:21:09;12.80;;;12.00;;
40058;SDS011;25763;49.972;8.568;2023-07-31T02:23:35;13.95;;;13.10;;
40058;SDS011;25763;49.972;8.568;2023-07-31T02:26:00;14.80;;;13.90;;
40058;SDS011;25763;49.972;8.568;2023-07-31T02:28:25;12.48;;;11.68;;
40058;SDS011;25763;49.972;8.568;2023-07-31T02:30:51;13.35;;;12.55;;
40058;SDS011;25763;49.972;8.568;2023-07-31T02:33:17;14.25;;;13.35;;
40058;SDS011;25763;49.972;8.568;2023-07-31T02:35:42;17.35;;;16.15;;
40058;SDS011;25763;49.972;8.568;2023-07-31T02:38:08;14.02;;;13.23;;
40058;SDS011;25763;49.972;8.568;2023-07-31T02:40:33;11.68;;;10.95;;
40058;SDS011;25763;49.972;8.568;2023-07-31T02:42:58;12.80;;;12.10;;
40058;SDS011;25763;49.972;8.568;2023-07-31T02:45:24;15.68;;;14.80;;
40058;SDS011;25763;49.972;8.568;2023-07-31T02:47:49;12.80;;;12.05;;
40058;SDS011;25763;49.972;8.568;2023-07-31T02:50:15;11.38;;;10.68;;
40058;SDS011;25763;49.972;8.568;2023-07-31T02:52:40;14.68;;;13.77;;
40058;SDS011;25763;49.972;8.568;2023-07-31T02:55:05;13.65;;;12.75;;
40058;SDS011;25763;49.972;8.568;2023-07-31T02:57:31;15.63;;;14.63;;
40058;SDS011;25763;49.972;8.568;2023-07-31T02:59:56;12.93;;;12.13;;
40058;SDS011;25763;49.972;8.568;2023-07-31T03:02:22;13.32;;;12.52;;
40058;SDS011;25763;49.972;8.568;2023-07-31T03:04:47;12.30;;;11.60;;
40058;SDS011;25763;49.972;8.568;2023-07-31T03:07:12;15.07;;;13.95;;
40058;SDS011;25763;49.972;8.568;2023-07-31T03:09:38;11.60;;;10.90;;
40058;SDS011;25763;49.972;8.568;2023-07-31T03:12:03;14.63;;;13.70;;
40058;SDS011;25763;49.972;8.568;2023-07-31T03:14:29;11.82;;;11.02;;
40058;SDS011;25763;49.972;8.568;2023-07-31T03:16:54;13.18;;;12.38;;
40058;SDS011;25763;49.972;8.568;2023-07-31T03:19:20;26.63;;;14.73;;
40058;SDS011;25763;49.972;8.568;2023-07-31T03:21:45;12.35;;;11.55;;
40058;SDS011;25763;49.972;8.568;2023-07-31T03:24:10;12.57;;;11.77;;
40058;SDS011;25763;49.972;8.568;2023-07-31T03:26:37;12.38;;;11.48;;
40058;SDS011;25763;49.972;8.568;2023-07-31T03:29:06;11.45;;;10.48;;
40058;SDS011;25763;49.972;8.568;2023-07-31T03:31:31;12.35;;;9.73;;
40058;SDS011;25763;49.972;8.568;2023-07-31T03:33:57;11.27;;;10.57;;
40058;SDS011;25763;49.972;8.568;2023-07-31T03:36:22;11.00;;;10.30;;
40058;SDS011;25763;49.972;8.568;2023-07-31T03:38:47;11.10;;;10.40;;
40058;SDS011;25763;49.972;8.568;2023-07-31T03:41:13;13.52;;;12.63;;
40058;SDS011;25763;49.972;8.568;2023-07-31T03:43:38;11.55;;;10.85;;
40058;SDS011;25763;49.972;8.568;2023-07-31T03:46:03;12.40;;;11.70;;
40058;SDS011;25763;49.972;8.568;2023-07-31T03:48:29;12.60;;;11.82;;
40058;SDS011;25763;49.972;8.568;2023-07-31T03:50:54;11.90;;;11.00;;
40058;SDS011;25763;49.972;8.568;2023-07-31T03:53:20;10.13;;;9.52;;
40058;SDS011;25763;49.972;8.568;2023-07-31T03:55:46;12.95;;;12.05;;
40058;SDS011;25763;49.972;8.568;2023-07-31T03:58:11;11.90;;;11.20;;
40058;SDS011;25763;49.972;8.568;2023-07-31T04:00:36;14.35;;;13.45;;
40058;SDS011;25763;49.972;8.568;2023-07-31T04:03:02;14.00;;;13.18;;
40058;SDS011;25763;49.972;8.568;2023-07-31T04:05:29;13.95;;;13.15;;
40058;SDS011;25763;49.972;8.568;2023-07-31T04:07:55;13.65;;;12.82;;
40058;SDS011;25763;49.972;8.568;2023-07-31T04:10:20;13.52;;;12.73;;
40058;SDS011;25763;49.972;8.568;2023-07-31T04:12:45;16.20;;;15.20;;
40058;SDS011;25763;49.972;8.568;2023-07-31T04:15:11;14.30;;;13.48;;
40058;SDS011;25763;49.972;8.568;2023-07-31T04:17:36;14.23;;;13.38;;
40058;SDS011;25763;49.972;8.568;2023-07-31T04:20:02;13.02;;;12.23;;
40058;SDS011;25763;49.972;8.568;2023-07-31T04:22:27;16.67;;;15.75;;
40058;SDS011;25763;49.972;8.568;2023-07-31T04:24:53;14.63;;;13.77;;
40058;SDS011;25763;49.972;8.568;2023-07-31T04:27:18;14.10;;;13.20;;
40058;SDS011;25763;49.972;8.568;2023-07-31T04:29:43;13.98;;;13.18;;
40058;SDS011;25763;49.972;8.568;2023-07-31T04:32:11;14.23;;;13.43;;
40058;SDS011;25763;49.972;8.568;2023-07-31T04:34:36;18.08;;;17.08;;
40058;SDS011;25763;49.972;8.568;2023-07-31T04:37:01;13.05;;;12.27;;
40058;SDS011;25763;49.972;8.568;2023-07-31T04:39:27;12.27;;;11.57;;
40058;SDS011;25763;49.972;8.568;2023-07-31T04:41:52;14.13;;;13.10;;
40058;SDS011;25763;49.972;8.568;2023-07-31T04:44:17;17.23;;;16.25;;
40058;SDS011;25763;49.972;8.568;2023-07-31T04:46:43;13.00;;;12.20;;
40058;SDS011;25763;49.972;8.568;2023-07-31T04:49:08;14.25;;;13.35;;
40058;SDS011;25763;49.972;8.568;2023-07-31T04:51:33;12.65;;;11.95;;
40058;SDS011;25763;49.972;8.568;2023-07-31T04:53:59;15.25;;;14.07;;
40058;SDS011;25763;49.972;8.568;2023-07-31T04:56:24;13.65;;;12.65;;
40058;SDS011;25763;49.972;8.568;2023-07-31T04:58:49;15.00;;;14.13;;
40058;SDS011;25763;49.972;8.568;2023-07-31T05:01:15;12.43;;;11.70;;
40058;SDS011;25763;49.972;8.568;2023-07-31T05:03:40;13.00;;;12.23;;
40058;SDS011;25763;49.972;8.568;2023-07-31T05:06:06;12.23;;;11.52;;
40058;SDS011;25763;49.972;8.568;2023-07-31T05:08:31;13.20;;;12.40;;
40058;SDS011;25763;49.972;8.568;2023-07-31T05:10:56;12.15;;;11.35;;
40058;SDS011;25763;49.972;8.568;2023-07-31T05:13:22;13.05;;;12.30;;
40058;SDS011;25763;49.972;8.568;2023-07-31T05:15:47;13.07;;;12.27;;
40058;SDS011;25763;49.972;8.568;2023-07-31T05:18:14;15.23;;;14.05;;
40058;SDS011;25763;49.972;8.568;2023-07-31T05:20:40;14.60;;;13.25;;
40058;SDS011;25763;49.972;8.568;2023-07-31T05:23:05;13.48;;;12.70;;
40058;SDS011;25763;49.972;8.568;2023-07-31T05:25:30;12.43;;;11.73;;
40058;SDS011;25763;49.972;8.568;2023-07-31T05:27:56;12.35;;;11.55;;
40058;SDS011;25763;49.972;8.568;2023-07-31T05:30:21;11.80;;;11.10;;
40058;SDS011;25763;49.972;8.568;2023-07-31T05:32:46;11.60;;;10.90;;
40058;SDS011;25763;49.972;8.568;2023-07-31T05:35:12;11.82;;;11.13;;
40058;SDS011;25763;49.972;8.568;2023-07-31T05:37:37;11.98;;;11.27;;
40058;SDS011;25763;49.972;8.568;2023-07-31T05:40:03;14.73;;;13.70;;
40058;SDS011;25763;49.972;8.568;2023-07-31T05:42:29;13.75;;;12.95;;
40058;SDS011;25763;49.972;8.568;2023-07-31T05:44:54;22.27;;;12.38;;
40058;SDS011;25763;49.972;8.568;2023-07-31T05:47:19;12.88;;;12.07;;
40058;SDS011;25763;49.972;8.568;2023-07-31T05:49:45;13.18;;;12.38;;
40058;SDS011;25763;49.972;8.568;2023-07-31T05:52:10;13.43;;;12.63;;
40058;SDS011;25763;49.972;8.568;2023-07-31T05:54:35;15.30;;;14.30;;
40058;SDS011;25763;49.972;8.568;2023-07-31T05:57:01;13.45;;;12.68;;
40058;SDS011;25763;49.972;8.568;2023-07-31T05:59:26;12.90;;;12.10;;
40058;SDS011;25763;49.972;8.568;2023-07-31T06:01:52;13.15;;;12.35;;
40058;SDS011;25763;49.972;8.568;2023-07-31T06:04:18;13.02;;;12.13;;
40058;SDS011;25763;49.972;8.568;2023-07-31T06:06:43;13.10;;;12.30;;
40058;SDS011;25763;49.972;8.568;2023-07-31T06:09:08;12.55;;;11.85;;
40058;SDS011;25763;49.972;8.568;2023-07-31T06:11:34;12.95;;;12.05;;
40058;SDS011;25763;49.972;8.568;2023-07-31T06:13:59;11.82;;;11.05;;
40058;SDS011;25763;49.972;8.568;2023-07-31T06:16:24;13.63;;;12.82;;
40058;SDS011;25763;49.972;8.568;2023-07-31T06:18:52;11.73;;;11.02;;
40058;SDS011;25763;49.972;8.568;2023-07-31T06:21:17;10.60;;;9.90;;
40058;SDS011;25763;49.972;8.568;2023-07-31T06:23:42;11.45;;;10.75;;
40058;SDS011;25763;49.972;8.568;2023-07-31T06:26:08;12.52;;;11.73;;
40058;SDS011;25763;49.972;8.568;2023-07-31T06:28:34;11.35;;;10.65;;
40058;SDS011;25763;49.972;8.568;2023-07-31T06:31:00;12.68;;;11.88;;
40058;SDS011;25763;49.972;8.568;2023-07-31T06:33:26;11.82;;;11.13;;
40058;SDS011;25763;49.972;8.568;2023-07-31T06:35:52;11.00;;;10.35;;
40058;SDS011;25763;49.972;8.568;2023-07-31T06:38:21;11.20;;;10.50;;
40058;SDS011;25763;49.972;8.568;2023-07-31T06:40:49;12.30;;;11.50;;
40058;SDS011;25763;49.972;8.568;2023-07-31T06:43:14;11.98;;;11.27;;
40058;SDS011;25763;49.972;8.568;2023-07-31T06:45:39;12.02;;;11.32;;
40058;SDS011;25763;49.972;8.568;2023-07-31T06:48:06;13.35;;;12.48;;
40058;SDS011;25763;49.972;8.568;2023-07-31T06:50:31;11.57;;;10.88;;
40058;SDS011;25763;49.972;8.568;2023-07-31T06:52:57;13.18;;;12.38;;
40058;SDS011;25763;49.972;8.568;2023-07-31T06:55:23;11.85;;;11.15;;
40058;SDS011;25763;49.972;8.568;2023-07-31T06:57:49;14.90;;;14.00;;
40058;SDS011;25763;49.972;8.568;2023-07-31T07:00:17;15.02;;;14.13;;
40058;SDS011;25763;49.972;8.568;2023-07-31T07:02:43;14.00;;;13.20;;
40058;SDS011;25763;49.972;8.568;2023-07-31T07:05:09;12.35;;;11.65;;
40058;SDS011;25763;49.972;8.568;2023-07-31T07:07:35;13.13;;;12.35;;
40058;SDS011;25763;49.972;8.568;2023-07-31T07:10:01;13.52;;;12.73;;
40058;SDS011;25763;49.972;8.568;2023-07-31T07:12:30;12.43;;;11.73;;
40058;SDS011;25763;49.972;8.568;2023-07-31T07:14:56;13.30;;;12.45;;
40058;SDS011;25763;49.972;8.568;2023-07-31T07:17:22;12.30;;;11.60;;
40058;SDS011;25763;49.972;8.568;2023-07-31T07:19:48;14.55;;;13.65;;
40058;SDS011;25763;49.972;8.568;2023-07-31T07:22:13;14.02;;;13.02;;
40058;SDS011;25763;49.972;8.568;2023-07-31T07:24:39;14.25;;;13.35;;
40058;SDS011;25763;49.972;8.568;2023-07-31T07:27:05;21.02;;;19.65;;
40058;SDS011;25763;49.972;8.568;2023-07-31T07:29:30;18.05;;;17.05;;
40058;SDS011;25763;49.972;8.568;2023-07-31T07:31:56;14.55;;;13.65;;
40058;SDS011;25763;49.972;8.568;2023-07-31T07:34:28;16.35;;;15.45;;
40058;SDS011;25763;49.972;8.568;2023-07-31T07:36:54;17.10;;;16.15;;
40058;SDS011;25763;49.972;8.568;2023-07-31T07:39:19;20.40;;;19.15;;
40058;SDS011;25763;49.972;8.568;2023-07-31T07:41:47;23.40;;;22.08;;
40058;SDS011;25763;49.972;8.568;2023-07-31T07:44:13;26.83;;;25.33;;
40058;SDS011;25763;49.972;8.568;2023-07-31T07:46:39;25.60;;;24.25;;
40058;SDS011;25763;49.972;8.568;2023-07-31T07:49:05;25.27;;;23.95;;
40058;SDS011;25763;49.972;8.568;2023-07-31T07:51:30;25.00;;;23.65;;
40058;SDS011;25763;49.972;8.568;2023-07-31T07:53:57;25.83;;;24.48;;
40058;SDS011;25763;49.972;8.568;2023-07-31T07:56:23;28.08;;;26.60;;
40058;SDS011;25763;49.972;8.568;2023-07-31T07:58:49;26.95;;;25.50;;
40058;SDS011;25763;49.972;8.568;2023-07-31T08:01:15;25.40;;;24.10;;
40058;SDS011;25763;49.972;8.568;2023-07-31T08:03:40;23.02;;;21.80;;
40058;SDS011;25763;49.972;8.568;2023-07-31T08:06:06;24.13;;;22.85;;
40058;SDS011;25763;49.972;8.568;2023-07-31T08:08:34;25.55;;;24.15;;
40058;SDS011;25763;49.972;8.568;2023-07-31T08:10:59;17.52;;;16.52;;
40058;SDS011;25763;49.972;8.568;2023-07-31T08:13:25;16.65;;;15.75;;
40058;SDS011;25763;49.972;8.568;2023-07-31T08:15:50;26.02;;;24.65;;
40058;SDS011;25763;49.972;8.568;2023-07-31T08:18:15;31.63;;;29.67;;
40058;SDS011;25763;49.972;8.568;2023-07-31T08:20:42;26.17;;;24.77;;
40058;SDS011;25763;49.972;8.568;2023-07-31T08:23:07;26.77;;;25.33;;
40058;SDS011;25763;49.972;8.568;2023-07-31T08:25:34;30.15;;;28.58;;
40058;SDS011;25763;49.972;8.568;2023-07-31T08:28:01;30.23;;;28.65;;
40058;SDS011;25763;49.972;8.568;2023-07-31T08:30:26;31.00;;;29.40;;
40058;SDS011;25763;49.972;8.568;2023-07-31T08:32:52;27.95;;;26.48;;
40058;SDS011;25763;49.972;8.568;2023-07-31T08:35:17;28.50;;;27.00;;
40058;SDS011;25763;49.972;8.568;2023-07-31T08:37:43;29.92;;;28.33;;
40058;SDS011;25763;49.972;8.568;2023-07-31T08:40:08;30.75;;;29.10;;
40058;SDS011;25763;49.972;8.568;2023-07-31T08:42:34;28.67;;;27.17;;
40058;SDS011;25763;49.972;8.568;2023-07-31T08:45:08;25.90;;;24.50;;
40058;SDS011;25763;49.972;8.568;2023-07-31T08:47:34;26.05;;;24.65;;
40058;SDS011;25763;49.972;8.568;2023-07-31T08:50:00;27.67;;;26.13;;
40058;SDS011;25763;49.972;8.568;2023-07-31T08:52:26;24.23;;;22.92;;
40058;SDS011;25763;49.972;8.568;2023-07-31T08:54:53;23.02;;;21.83;;
40058;SDS011;25763;49.972;8.568;2023-07-31T08:57:18;23.83;;;22.52;;
40058;SDS011;25763;49.972;8.568;2023-07-31T08:59:44;25.38;;;23.98;;
40058;SDS011;25763;49.972;8.568;2023-07-31T09:02:10;19.17;;;18.08;;
40058;SDS011;25763;49.972;8.568;2023-07-31T09:04:39;31.38;;;29.77;;
40058;SDS011;25763;49.972;8.568;2023-07-31T09:07:05;28.02;;;26.52;;
40058;SDS011;25763;49.972;8.568;2023-07-31T09:09:31;32.00;;;30.05;;
40058;SDS011;25763;49.972;8.568;2023-07-31T09:11:57;28.25;;;26.77;;
40058;SDS011;25763;49.972;8.568;2023-07-31T09:14:24;36.30;;;34.45;;
40058;SDS011;25763;49.972;8.568;2023-07-31T09:19:32;36.58;;;34.58;;
40058;SDS011;25763;49.972;8.568;2023-07-31T09:21:59;34.17;;;32.40;;
40058;SDS011;25763;49.972;8.568;2023-07-31T09:24:26;35.42;;;33.42;;
40058;SDS011;25763;49.972;8.568;2023-07-31T09:26:58;33.75;;;32.00;;
40058;SDS011;25763;49.972;8.568;2023-07-31T09:29:25;35.83;;;33.33;;
40058;SDS011;25763;49.972;8.568;2023-07-31T09:31:52;35.00;;;33.20;;
40058;SDS011;25763;49.972;8.568;2023-07-31T09:34:18;31.05;;;29.35;;
40058;SDS011;25763;49.972;8.568;2023-07-31T09:36:45;38.92;;;36.90;;
40058;SDS011;25763;49.972;8.568;2023-07-31T09:39:12;27.25;;;25.80;;
40058;SDS011;25763;49.972;8.568;2023-07-31T09:41:42;26.85;;;25.45;;
40058;SDS011;25763;49.972;8.568;2023-07-31T09:44:09;28.17;;;26.52;;
40058;SDS011;25763;49.972;8.568;2023-07-31T09:46:35;15.65;;;14.75;;
40058;SDS011;25763;49.972;8.568;2023-07-31T09:49:12;13.40;;;12.60;;
40058;SDS011;25763;49.972;8.568;2023-07-31T09:51:41;29.58;;;27.98;;
40058;SDS011;25763;49.972;8.568;2023-07-31T09:54:13;42.95;;;40.75;;
40058;SDS011;25763;49.972;8.568;2023-07-31T09:59:14;36.03;;;34.15;;
40058;SDS011;25763;49.972;8.568;2023-07-31T10:01:42;15.70;;;14.80;;
40058;SDS011;25763;49.972;8.568;2023-07-31T10:04:08;24.67;;;23.38;;
40058;SDS011;25763;49.972;8.568;2023-07-31T10:06:35;13.68;;;12.88;;
40058;SDS011;25763;49.972;8.568;2023-07-31T10:09:02;12.73;;;11.93;;
40058;SDS011;25763;49.972;8.568;2023-07-31T10:11:30;15.55;;;14.65;;
40058;SDS011;25763;49.972;8.568;2023-07-31T10:14:02;13.65;;;12.65;;
40058;SDS011;25763;49.972;8.568;2023-07-31T10:16:29;22.73;;;21.48;;
40058;SDS011;25763;49.972;8.568;2023-07-31T10:18:56;15.95;;;15.05;;
40058;SDS011;25763;49.972;8.568;2023-07-31T10:21:21;14.57;;;13.63;;
40058;SDS011;25763;49.972;8.568;2023-07-31T10:23:47;11.70;;;11.00;;
40058;SDS011;25763;49.972;8.568;2023-07-31T10:26:16;11.75;;;11.05;;
40058;SDS011;25763;49.972;8.568;2023-07-31T10:28:44;11.32;;;10.63;;
40058;SDS011;25763;49.972;8.568;2023-07-31T10:31:11;13.85;;;13.05;;
40058;SDS011;25763;49.972;8.568;2023-07-31T10:33:40;11.82;;;10.98;;
40058;SDS011;25763;49.972;8.568;2023-07-31T10:36:12;27.02;;;25.60;;
40058;SDS011;25763;49.972;8.568;2023-07-31T10:38:45;13.98;;;13.07;;
40058;SDS011;25763;49.972;8.568;2023-07-31T10:41:10;12.90;;;12.15;;
40058;SDS011;25763;49.972;8.568;2023-07-31T10:43:39;11.95;;;11.25;;
40058;SDS011;25763;49.972;8.568;2023-07-31T10:46:11;25.42;;;24.08;;
40058;SDS011;25763;49.972;8.568;2023-07-31T10:48:38;19.52;;;18.42;;
40058;SDS011;25763;49.972;8.568;2023-07-31T10:51:07;13.23;;;12.43;;
40058;SDS011;25763;49.972;8.568;2023-07-31T10:53:35;37.28;;;35.28;;
40058;SDS011;25763;49.972;8.568;2023-07-31T10:56:04;19.17;;;18.08;;
40058;SDS011;25763;49.972;8.568;2023-07-31T10:58:32;27.88;;;26.42;;
40058;SDS011;25763;49.972;8.568;2023-07-31T11:00:59;21.60;;;20.42;;
40058;SDS011;25763;49.972;8.568;2023-07-31T11:03:29;14.18;;;13.38;;
40058;SDS011;25763;49.972;8.568;2023-07-31T11:06:09;18.02;;;17.02;;
40058;SDS011;25763;49.972;8.568;2023-07-31T11:08:35;30.95;;;29.23;;
40058;SDS011;25763;49.972;8.568;2023-07-31T11:11:07;24.58;;;23.27;;
40058;SDS011;25763;49.972;8.568;2023-07-31T11:13:39;17.42;;;16.42;;
40058;SDS011;25763;49.972;8.568;2023-07-31T11:16:06;17.15;;;16.15;;
40058;SDS011;25763;49.972;8.568;2023-07-31T11:18:31;16.42;;;15.35;;
40058;SDS011;25763;49.972;8.568;2023-07-31T11:20:56;23.75;;;22.45;;
40058;SDS011;25763;49.972;8.568;2023-07-31T11:23:22;16.13;;;15.23;;
40058;SDS011;25763;49.972;8.568;2023-07-31T11:25:48;15.45;;;14.48;;
40058;SDS011;25763;49.972;8.568;2023-07-31T11:28:15;18.00;;;17.00;;
40058;SDS011;25763;49.972;8.568;2023-07-31T11:30:42;25.25;;;23.92;;
40058;SDS011;25763;49.972;8.568;2023-07-31T11:33:09;26.75;;;25.27;;
40058;SDS011;25763;49.972;8.568;2023-07-31T11:35:40;16.08;;;15.07;;
40058;SDS011;25763;49.972;8.568;2023-07-31T11:38:08;19.27;;;18.08;;
40058;SDS011;25763;49.972;8.568;2023-07-31T11:40:43;14.52;;;13.73;;
40058;SDS011;25763;49.972;8.568;2023-07-31T11:43:09;21.63;;;20.23;;
40058;SDS011;25763;49.972;8.568;2023-07-31T11:45:36;17.38;;;16.38;;
40058;SDS011;25763;49.972;8.568;2023-07-31T11:48:03;20.92;;;19.80;;
40058;SDS011;25763;49.972;8.568;2023-07-31T11:50:28;18.73;;;17.73;;
40058;SDS011;25763;49.972;8.568;2023-07-31T11:53:02;16.92;;;15.93;;
40058;SDS011;25763;49.972;8.568;2023-07-31T11:55:33;15.93;;;14.68;;
40058;SDS011;25763;49.972;8.568;2023-07-31T11:57:58;16.63;;;15.73;;
40058;SDS011;25763;49.972;8.568;2023-07-31T12:00:25;16.52;;;15.50;;
40058;SDS011;25763;49.972;8.568;2023-07-31T12:02:51;18.65;;;17.55;;
40058;SDS011;25763;49.972;8.568;2023-07-31T12:05:17;15.90;;;14.95;;
40058;SDS011;25763;49.972;8.568;2023-07-31T12:07:47;19.27;;;18.17;;
40058;SDS011;25763;49.972;8.568;2023-07-31T12:10:25;14.32;;;13.52;;
40058;SDS011;25763;49.972;8.568;2023-07-31T12:13:05;12.95;;;12.18;;
40058;SDS011;25763;49.972;8.568;2023-07-31T12:15:39;19.33;;;18.20;;
40058;SDS011;25763;49.972;8.568;2023-07-31T12:18:16;13.70;;;12.90;;
40058;SDS011;25763;49.972;8.568;2023-07-31T12:20:45;16.83;;;15.88;;
40058;SDS011;25763;49.972;8.568;2023-07-31T12:23:19;16.42;;;15.52;;
40058;SDS011;25763;49.972;8.568;2023-07-31T12:26:15;16.42;;;15.43;;
40058;SDS011;25763;49.972;8.568;2023-07-31T12:31:18;13.00;;;12.23;;
40058;SDS011;25763;49.972;8.568;2023-07-31T12:33:46;15.23;;;14.32;;
40058;SDS011;25763;49.972;8.568;2023-07-31T12:36:24;14.20;;;13.40;;
40058;SDS011;25763;49.972;8.568;2023-07-31T12:38:50;13.05;;;12.25;;
40058;SDS011;25763;49.972;8.568;2023-07-31T12:41:16;13.77;;;12.98;;
40058;SDS011;25763;49.972;8.568;2023-07-31T12:43:43;14.88;;;13.98;;
40058;SDS011;25763;49.972;8.568;2023-07-31T12:46:09;12.63;;;11.90;;
40058;SDS011;25763;49.972;8.568;2023-07-31T12:48:35;13.18;;;12.38;;
40058;SDS011;25763;49.972;8.568;2023-07-31T12:51:01;14.00;;;13.10;;
40058;SDS011;25763;49.972;8.568;2023-07-31T12:53:28;12.85;;;12.13;;
40058;SDS011;25763;49.972;8.568;2023-07-31T12:55:55;17.83;;;16.75;;
40058;SDS011;25763;49.972;8.568;2023-07-31T12:58:21;14.45;;;13.63;;
40058;SDS011;25763;49.972;8.568;2023-07-31T13:00:46;17.00;;;16.00;;
40058;SDS011;25763;49.972;8.568;2023-07-31T13:03:12;17.90;;;16.88;;
40058;SDS011;25763;49.972;8.568;2023-07-31T13:05:37;13.77;;;12.98;;
40058;SDS011;25763;49.972;8.568;2023-07-31T13:08:03;17.88;;;16.88;;
40058;SDS011;25763;49.972;8.568;2023-07-31T13:10:28;13.07;;;12.27;;
40058;SDS011;25763;49.972;8.568;2023-07-31T13:12:54;16.25;;;15.25;;
40058;SDS011;25763;49.972;8.568;2023-07-31T13:15:20;15.13;;;14.23;;
40058;SDS011;25763;49.972;8.568;2023-07-31T13:17:45;18.20;;;17.20;;
40058;SDS011;25763;49.972;8.568;2023-07-31T13:20:11;18.85;;;17.77;;
40058;SDS011;25763;49.972;8.568;2023-07-31T13:22:37;15.77;;;14.77;;
40058;SDS011;25763;49.972;8.568;2023-07-31T13:25:02;26.05;;;24.65;;
40058;SDS011;25763;49.972;8.568;2023-07-31T13:27:28;15.90;;;14.70;;
40058;SDS011;25763;49.972;8.568;2023-07-31T13:29:54;16.65;;;15.70;;
40058;SDS011;25763;49.972;8.568;2023-07-31T13:32:19;16.77;;;15.77;;
40058;SDS011;25763;49.972;8.568;2023-07-31T13:34:46;14.95;;;13.95;;
40058;SDS011;25763;49.972;8.568;2023-07-31T13:37:12;17.17;;;16.17;;
40058;SDS011;25763;49.972;8.568;2023-07-31T13:39:38;17.27;;;16.27;;
40058;SDS011;25763;49.972;8.568;2023-07-31T13:42:04;25.83;;;24.45;;
40058;SDS011;25763;49.972;8.568;2023-07-31T13:44:32;15.10;;;13.98;;
40058;SDS011;25763;49.972;8.568;2023-07-31T13:46:59;16.40;;;15.30;;
40058;SDS011;25763;49.972;8.568;2023-07-31T13:49:25;14.93;;;14.07;;
40058;SDS011;25763;49.972;8.568;2023-07-31T13:51:50;15.70;;;14.80;;
40058;SDS011;25763;49.972;8.568;2023-07-31T13:54:15;14.23;;;13.40;;
40058;SDS011;25763;49.972;8.568;2023-07-31T13:56:42;16.73;;;15.73;;
40058;SDS011;25763;49.972;8.568;2023-07-31T13:59:07;15.85;;;14.95;;
40058;SDS011;25763;49.972;8.568;2023-07-31T14:01:33;17.45;;;16.45;;
40058;SDS011;25763;49.972;8.568;2023-07-31T14:03:58;18.75;;;17.65;;
40058;SDS011;25763;49.972;8.568;2023-07-31T14:06:24;15.80;;;14.80;;
40058;SDS011;25763;49.972;8.568;2023-07-31T14:08:49;16.40;;;15.50;;
40058;SDS011;25763;49.972;8.568;2023-07-31T14:11:14;16.77;;;15.82;;
40058;SDS011;25763;49.972;8.568;2023-07-31T14:13:40;16.48;;;15.52;;
40058;SDS011;25763;49.972;8.568;2023-07-31T14:16:05;14.48;;;13.63;;
40058;SDS011;25763;49.972;8.568;2023-07-31T14:18:31;13.80;;;13.00;;
40058;SDS011;25763;49.972;8.568;2023-07-31T14:20:57;12.73;;;11.93;;
40058;SDS011;25763;49.972;8.568;2023-07-31T14:23:22;15.27;;;14.30;;
40058;SDS011;25763;49.972;8.568;2023-07-31T14:25:48;14.75;;;13.50;;
40058;SDS011;25763;49.972;8.568;2023-07-31T14:28:13;13.93;;;13.13;;